createdAt,value
2024-02-29T00:01:41.541Z,17.42
2024-02-29T00:04:10.197Z,21.02
2024-02-29T00:06:38.261Z,20.42
2024-02-29T00:09:06.261Z,21.47
2024-02-29T00:11:35.927Z,23.20
2024-02-29T00:14:04.134Z,21.98
2024-02-29T00:16:32.734Z,22.00
2024-02-29T00:19:00.797Z,21.07
2024-02-29T00:21:30.574Z,20.55
2024-02-29T00:23:58.660Z,21.90
2024-02-29T00:26:27.463Z,21.20
2024-02-29T00:28:56.898Z,21.23
2024-02-29T00:31:25.788Z,24.15
2024-02-29T00:33:53.849Z,23.70
2024-02-29T00:36:22.170Z,25.03
2024-02-29T00:38:58.597Z,24.25
2024-02-29T00:41:30.368Z,26.30
2024-02-29T00:43:59.755Z,26.52
2024-02-29T00:46:27.843Z,26.80
2024-02-29T00:48:55.920Z,25.50
2024-02-29T00:51:24.049Z,26.35
2024-02-29T00:53:52.260Z,27.13
2024-02-29T00:56:20.326Z,28.60
2024-02-29T00:58:48.339Z,28.88
2024-02-29T01:01:18.531Z,27.67
2024-02-29T01:03:46.660Z,27.13
2024-02-29T01:06:14.744Z,26.23
2024-02-29T01:08:42.748Z,28.98
2024-02-29T01:11:10.915Z,30.20
2024-02-29T01:13:39.069Z,28.55
2024-02-29T01:16:07.431Z,30.87
2024-02-29T01:18:37.250Z,34.53
2024-02-29T01:21:07.747Z,32.73
2024-02-29T01:23:35.802Z,33.10
2024-02-29T01:26:05.210Z,32.22
2024-02-29T01:28:33.229Z,30.90
2024-02-29T01:31:01.807Z,30.52
2024-02-29T01:33:29.979Z,29.63
2024-02-29T01:35:59.567Z,32.63
2024-02-29T01:38:27.598Z,29.25
2024-02-29T01:40:55.629Z,31.60
2024-02-29T01:43:23.700Z,29.13
2024-02-29T01:46:09.727Z,29.52
2024-02-29T01:48:37.880Z,30.20
2024-02-29T01:51:08.389Z,30.50
2024-02-29T01:53:36.821Z,28.83
2024-02-29T01:56:05.186Z,27.98
2024-02-29T01:58:34.388Z,30.15
2024-02-29T02:01:02.749Z,27.90
2024-02-29T02:03:31.473Z,29.02
2024-02-29T02:05:59.543Z,28.30
2024-02-29T02:08:31.346Z,28.70
2024-02-29T02:11:00.036Z,31.35
2024-02-29T02:13:28.057Z,27.05
2024-02-29T02:15:56.108Z,27.17
2024-02-29T02:18:24.269Z,28.38
2024-02-29T02:20:55.397Z,28.13
2024-02-29T02:23:23.480Z,26.73
2024-02-29T02:25:52.128Z,27.55
2024-02-29T02:28:20.277Z,29.80
2024-02-29T02:30:48.277Z,26.42
2024-02-29T02:33:16.984Z,29.27
2024-02-29T02:35:45.251Z,30.83
2024-02-29T02:38:14.821Z,31.87
2024-02-29T02:40:42.807Z,31.07
2024-02-29T02:43:10.845Z,28.98
2024-02-29T02:45:38.920Z,29.17
2024-02-29T02:48:07.701Z,27.67
2024-02-29T02:50:35.741Z,31.60
2024-02-29T02:53:05.414Z,36.20
2024-02-29T02:55:34.970Z,31.27
2024-02-29T02:58:03.083Z,32.30
2024-02-29T03:00:31.234Z,30.92
2024-02-29T03:03:00.852Z,28.63
2024-02-29T03:05:28.971Z,31.23
2024-02-29T03:07:56.998Z,30.95
2024-02-29T03:10:25.020Z,30.73
2024-02-29T03:12:54.472Z,28.45
2024-02-29T03:15:22.636Z,30.40
2024-02-29T03:17:50.772Z,28.57
2024-02-29T03:20:19.052Z,32.50
2024-02-29T03:22:47.087Z,29.60
2024-02-29T03:25:15.174Z,29.05
2024-02-29T03:27:43.353Z,29.48
2024-02-29T03:30:13.274Z,28.73
2024-02-29T03:32:41.307Z,28.05
2024-02-29T03:35:10.431Z,29.52
2024-02-29T03:37:38.465Z,30.70
2024-02-29T03:40:08.001Z,28.88
2024-02-29T03:42:36.063Z,30.30
2024-02-29T03:45:04.431Z,30.98
2024-02-29T03:47:34.000Z,27.67
2024-02-29T03:50:02.301Z,27.77
2024-02-29T03:52:30.386Z,27.88
2024-02-29T03:54:58.456Z,27.58
2024-02-29T03:57:26.532Z,29.77
2024-02-29T03:59:54.537Z,26.60
2024-02-29T04:02:24.611Z,28.00
2024-02-29T04:04:55.584Z,27.73
2024-02-29T04:07:23.672Z,25.50
2024-02-29T04:09:55.856Z,24.52
2024-02-29T04:12:24.119Z,26.98
2024-02-29T04:14:52.179Z,25.23
2024-02-29T04:17:20.529Z,25.60
2024-02-29T04:19:48.985Z,23.33
2024-02-29T04:22:19.622Z,24.77
2024-02-29T04:24:47.682Z,24.88
2024-02-29T04:27:15.718Z,27.40
2024-02-29T04:29:46.667Z,25.60
2024-02-29T04:32:14.713Z,26.20
2024-02-29T04:34:43.239Z,25.40
2024-02-29T04:37:11.315Z,25.48
2024-02-29T04:39:40.855Z,25.42
2024-02-29T04:42:08.883Z,24.30
2024-02-29T04:44:36.956Z,26.42
2024-02-29T04:47:05.955Z,23.30
2024-02-29T04:49:34.017Z,28.13
2024-02-29T04:52:02.107Z,26.87
2024-02-29T04:54:30.141Z,30.38
2024-02-29T04:56:59.671Z,26.00
2024-02-29T04:59:27.720Z,25.30
2024-02-29T05:01:55.800Z,25.63
2024-02-29T05:04:23.905Z,24.25
2024-02-29T05:06:51.977Z,24.05
2024-02-29T05:09:20.089Z,23.92
2024-02-29T05:11:48.212Z,25.50
2024-02-29T05:14:17.672Z,25.00
2024-02-29T05:16:45.682Z,26.35
2024-02-29T05:19:13.753Z,25.42
2024-02-29T05:21:44.941Z,25.08
2024-02-29T05:24:13.105Z,24.88
2024-02-29T05:26:41.112Z,29.98
2024-02-29T05:29:09.142Z,30.27
2024-02-29T05:31:56.819Z,26.73
2024-02-29T05:34:25.501Z,28.73
2024-02-29T05:36:53.724Z,25.95
2024-02-29T05:39:21.809Z,26.02
2024-02-29T05:41:50.008Z,24.10
2024-02-29T05:44:18.198Z,25.58
2024-02-29T05:46:46.369Z,24.30
2024-02-29T05:49:15.874Z,27.65
2024-02-29T05:51:44.086Z,23.35
2024-02-29T05:54:31.294Z,22.65
2024-02-29T05:57:01.074Z,25.98
2024-02-29T05:59:30.854Z,25.30
2024-02-29T06:02:00.110Z,25.42
2024-02-29T06:04:29.666Z,27.40
2024-02-29T06:06:57.850Z,24.90
2024-02-29T06:09:26.213Z,25.13
2024-02-29T06:11:54.219Z,26.98
2024-02-29T06:14:25.639Z,28.05
2024-02-29T06:16:53.722Z,27.80
2024-02-29T06:19:21.804Z,27.80
2024-02-29T06:21:51.231Z,27.40
2024-02-29T06:24:20.261Z,27.58
2024-02-29T06:26:48.627Z,27.60
2024-02-29T06:29:16.583Z,31.33
2024-02-29T06:31:44.648Z,27.10
2024-02-29T06:34:12.798Z,25.55
2024-02-29T06:36:41.257Z,26.60
2024-02-29T06:39:11.368Z,26.92
2024-02-29T06:41:39.652Z,25.20
2024-02-29T06:44:08.414Z,26.27
2024-02-29T06:46:39.656Z,25.45
2024-02-29T06:49:07.734Z,28.55
2024-02-29T06:51:36.598Z,27.83
2024-02-29T06:54:06.412Z,26.27
2024-02-29T06:56:35.836Z,23.17
2024-02-29T06:59:04.620Z,22.92
2024-02-29T07:01:33.820Z,21.65
2024-02-29T07:04:02.100Z,23.13
2024-02-29T07:06:30.233Z,24.05
2024-02-29T07:08:58.228Z,21.48
2024-02-29T07:11:27.266Z,20.40
2024-02-29T07:13:57.186Z,20.77
2024-02-29T07:16:26.420Z,21.95
2024-02-29T07:18:54.518Z,21.08
2024-02-29T07:21:22.559Z,19.52
2024-02-29T07:23:52.515Z,20.13
2024-02-29T07:26:20.524Z,20.23
2024-02-29T07:28:48.553Z,19.95
2024-02-29T07:31:20.848Z,19.30
2024-02-29T07:33:48.973Z,20.77
2024-02-29T07:36:17.015Z,21.03
2024-02-29T07:38:45.230Z,21.30
2024-02-29T07:41:13.247Z,21.90
2024-02-29T07:43:41.328Z,23.05
2024-02-29T07:46:10.016Z,21.30
2024-02-29T07:48:39.589Z,22.07
2024-02-29T07:51:07.740Z,21.17
2024-02-29T07:53:35.732Z,19.65
2024-02-29T07:56:05.668Z,21.73
2024-02-29T07:58:33.725Z,21.50
2024-02-29T08:01:01.031Z,20.88
2024-02-29T08:03:29.123Z,20.95
2024-02-29T08:05:59.242Z,20.27
2024-02-29T08:08:27.323Z,19.52
2024-02-29T08:10:55.485Z,20.13
2024-02-29T08:13:23.607Z,18.73
2024-02-29T08:15:51.809Z,19.40
2024-02-29T08:18:20.053Z,21.48
2024-02-29T08:20:48.261Z,21.40
2024-02-29T08:23:17.827Z,20.13
2024-02-29T08:25:46.178Z,22.45
2024-02-29T08:28:14.352Z,21.73
2024-02-29T08:30:42.564Z,19.70
2024-02-29T08:33:10.930Z,21.05
2024-02-29T08:35:40.130Z,21.67
2024-02-29T08:38:08.202Z,23.03
2024-02-29T08:40:37.661Z,20.42
2024-02-29T08:43:06.012Z,20.55
2024-02-29T08:45:34.034Z,23.02
2024-02-29T08:48:02.375Z,19.75
2024-02-29T08:50:31.020Z,23.30
2024-02-29T08:52:59.231Z,20.73
2024-02-29T08:55:27.296Z,22.17
2024-02-29T08:57:56.655Z,23.50
2024-02-29T09:00:24.778Z,24.33
2024-02-29T09:02:52.862Z,24.35
2024-02-29T09:05:20.878Z,24.98
2024-02-29T09:07:48.946Z,24.10
2024-02-29T09:10:17.448Z,22.40
2024-02-29T09:12:46.243Z,23.27
2024-02-29T09:15:16.021Z,21.63
2024-02-29T09:17:44.078Z,21.08
2024-02-29T09:20:13.002Z,22.95
2024-02-29T09:22:41.667Z,22.55
2024-02-29T09:25:10.985Z,24.45
2024-02-29T09:27:39.499Z,23.60
2024-02-29T09:30:10.008Z,23.20
2024-02-29T09:32:41.914Z,20.58
2024-02-29T09:35:10.767Z,22.92
2024-02-29T09:37:38.887Z,21.00
2024-02-29T09:40:09.122Z,20.42
2024-02-29T09:42:38.947Z,23.53
2024-02-29T09:45:09.733Z,23.23
2024-02-29T09:47:43.975Z,20.23
2024-02-29T09:50:14.087Z,18.38
2024-02-29T09:52:42.174Z,18.80
2024-02-29T09:55:15.352Z,18.73
2024-02-29T09:57:43.764Z,18.48
2024-02-29T10:00:13.222Z,19.10
2024-02-29T10:02:43.686Z,18.45
2024-02-29T10:05:12.262Z,16.77
2024-02-29T10:07:44.771Z,17.20
2024-02-29T10:10:14.707Z,16.50
2024-02-29T10:12:44.623Z,17.80
2024-02-29T10:15:14.601Z,18.48
2024-02-29T10:17:44.503Z,17.40
2024-02-29T10:20:13.883Z,18.58
2024-02-29T10:22:43.770Z,16.88
2024-02-29T10:25:13.832Z,17.13
2024-02-29T10:27:42.626Z,17.20
2024-02-29T10:30:12.599Z,18.35
2024-02-29T10:32:41.981Z,16.63
2024-02-29T10:35:20.157Z,16.42
2024-02-29T10:37:49.263Z,16.98
2024-02-29T10:40:18.206Z,15.60
2024-02-29T10:42:46.443Z,16.10
2024-02-29T10:45:16.355Z,14.90
2024-02-29T10:47:48.693Z,16.20
2024-02-29T10:50:21.841Z,15.15
2024-02-29T10:52:51.696Z,14.75
2024-02-29T10:55:22.540Z,13.43
2024-02-29T10:58:04.692Z,14.93
2024-02-29T11:00:34.024Z,14.88
2024-02-29T11:03:02.445Z,12.82
2024-02-29T11:05:31.831Z,12.25
2024-02-29T11:08:00.129Z,11.85
2024-02-29T11:10:28.533Z,11.43
2024-02-29T11:12:59.790Z,13.10
2024-02-29T11:15:28.164Z,11.00
2024-02-29T11:17:56.280Z,11.45
2024-02-29T11:20:25.665Z,11.07
2024-02-29T11:23:10.952Z,12.20
2024-02-29T11:25:43.947Z,10.40
2024-02-29T11:28:12.577Z,10.97
2024-02-29T11:30:42.271Z,10.77
2024-02-29T11:33:11.256Z,10.83
2024-02-29T11:35:39.363Z,11.43
2024-02-29T11:38:10.232Z,10.15
2024-02-29T11:40:38.345Z,10.50
2024-02-29T11:43:08.624Z,9.48
2024-02-29T11:45:38.757Z,11.52
2024-02-29T11:48:07.238Z,10.98
2024-02-29T11:50:35.270Z,9.27
2024-02-29T11:53:03.434Z,10.32
2024-02-29T11:55:32.890Z,9.65
2024-02-29T11:58:01.714Z,9.45
2024-02-29T12:00:30.124Z,9.10
2024-02-29T12:02:58.836Z,9.18
2024-02-29T12:05:26.858Z,9.40
2024-02-29T12:07:54.952Z,11.30
2024-02-29T12:10:23.436Z,10.77
2024-02-29T12:12:52.927Z,11.65
2024-02-29T12:15:21.388Z,12.48
2024-02-29T12:17:49.460Z,12.82
2024-02-29T12:20:18.709Z,14.13
2024-02-29T12:22:50.063Z,13.52
2024-02-29T12:25:18.880Z,13.68
2024-02-29T12:27:47.216Z,14.50
2024-02-29T12:30:17.320Z,14.23
2024-02-29T12:32:45.804Z,11.68
2024-02-29T12:35:14.667Z,12.50
2024-02-29T12:37:43.445Z,13.75
2024-02-29T12:40:14.068Z,12.15
2024-02-29T12:42:42.818Z,10.90
2024-02-29T12:45:16.908Z,11.57
2024-02-29T12:47:48.875Z,10.80
2024-02-29T12:50:17.869Z,11.90
2024-02-29T12:52:48.809Z,11.25
2024-02-29T12:55:17.525Z,12.85
2024-02-29T12:57:45.716Z,11.38
2024-02-29T13:00:20.206Z,11.00
2024-02-29T13:02:50.893Z,10.27
2024-02-29T13:05:19.181Z,9.93
2024-02-29T13:07:48.020Z,9.55
2024-02-29T13:10:16.107Z,11.07
2024-02-29T13:12:49.317Z,11.23
2024-02-29T13:15:22.033Z,11.30
2024-02-29T13:17:51.512Z,12.10
2024-02-29T13:20:19.849Z,11.02
2024-02-29T13:22:47.887Z,11.65
2024-02-29T13:25:16.035Z,11.60
2024-02-29T13:27:44.301Z,10.38
2024-02-29T13:30:12.910Z,10.63
2024-02-29T13:32:40.924Z,10.18
2024-02-29T13:35:11.010Z,10.45
2024-02-29T13:37:39.529Z,9.10
2024-02-29T13:40:09.960Z,9.10
2024-02-29T13:42:38.667Z,12.48
2024-02-29T13:45:10.685Z,11.18
2024-02-29T13:47:49.027Z,10.40
2024-02-29T13:50:20.033Z,10.07
2024-02-29T13:52:48.574Z,10.48
2024-02-29T13:55:17.368Z,9.00
2024-02-29T13:57:46.192Z,9.63
2024-02-29T14:00:16.402Z,8.20
2024-02-29T14:02:45.693Z,7.80
2024-02-29T14:05:13.958Z,8.50
2024-02-29T14:07:45.730Z,8.73
2024-02-29T14:10:15.973Z,9.93
2024-02-29T14:12:46.492Z,8.90
2024-02-29T14:15:20.224Z,8.63
2024-02-29T14:17:48.287Z,9.33
2024-02-29T14:20:16.480Z,9.02
2024-02-29T14:22:45.897Z,10.23
2024-02-29T14:25:15.452Z,9.17
2024-02-29T14:27:43.570Z,9.53
2024-02-29T14:30:17.423Z,9.90
2024-02-29T14:32:45.532Z,9.95
2024-02-29T14:35:15.316Z,9.20
2024-02-29T14:37:43.451Z,10.07
2024-02-29T14:40:16.070Z,9.07
2024-02-29T14:42:44.258Z,8.75
2024-02-29T14:45:13.007Z,8.35
2024-02-29T14:47:41.087Z,9.32
2024-02-29T14:50:10.642Z,8.38
2024-02-29T14:52:40.926Z,8.90
2024-02-29T14:55:14.439Z,9.40
2024-02-29T14:57:43.933Z,9.20
2024-02-29T15:00:15.405Z,9.38
2024-02-29T15:02:44.425Z,9.00
2024-02-29T15:05:14.524Z,9.77
2024-02-29T15:07:43.169Z,9.45
2024-02-29T15:10:13.687Z,9.13
2024-02-29T15:12:43.227Z,10.27
2024-02-29T15:15:12.133Z,9.68
2024-02-29T15:17:40.431Z,10.20
2024-02-29T15:20:11.258Z,8.48
2024-02-29T15:22:40.753Z,9.05
2024-02-29T15:25:16.131Z,8.98
2024-02-29T15:27:54.586Z,9.60
2024-02-29T15:30:26.366Z,9.65
2024-02-29T15:32:55.405Z,9.55
2024-02-29T15:35:23.627Z,10.15
2024-02-29T15:37:52.084Z,10.40
2024-02-29T15:40:20.215Z,11.13
2024-02-29T15:42:49.675Z,12.20
2024-02-29T15:45:17.999Z,11.90
2024-02-29T15:47:48.038Z,11.15
2024-02-29T15:50:16.412Z,10.20
2024-02-29T15:52:44.525Z,10.32
2024-02-29T15:55:13.185Z,10.90
2024-02-29T15:57:41.446Z,10.32
2024-02-29T16:00:16.741Z,10.38
2024-02-29T16:02:44.748Z,9.35
2024-02-29T16:05:16.718Z,9.88
2024-02-29T16:07:44.944Z,9.98
2024-02-29T16:10:13.161Z,12.02
2024-02-29T16:12:41.642Z,11.88
2024-02-29T16:15:19.698Z,11.63
2024-02-29T16:17:46.913Z,10.77
2024-02-29T16:20:15.223Z,12.30
2024-02-29T16:22:43.320Z,11.55
2024-02-29T16:25:11.650Z,10.63
2024-02-29T16:27:40.059Z,11.05
2024-02-29T16:30:12.780Z,11.85
2024-02-29T16:32:46.592Z,10.88
2024-02-29T16:35:15.672Z,10.88
2024-02-29T16:37:43.735Z,10.32
2024-02-29T16:40:13.159Z,10.65
2024-02-29T16:42:43.498Z,10.80
2024-02-29T16:45:15.521Z,10.50
2024-02-29T16:47:45.219Z,11.10
2024-02-29T16:50:16.687Z,12.23
2024-02-29T16:52:44.849Z,10.97
2024-02-29T16:55:13.194Z,10.15
2024-02-29T16:57:41.262Z,10.45
2024-02-29T17:00:12.249Z,10.15
2024-02-29T17:02:40.802Z,10.38
2024-02-29T17:05:12.463Z,9.83
2024-02-29T17:07:40.644Z,11.87
2024-02-29T17:10:16.029Z,10.68
2024-02-29T17:12:44.144Z,10.80
2024-02-29T17:15:13.187Z,10.57
2024-02-29T17:17:41.249Z,10.00
2024-02-29T17:20:12.290Z,10.10
2024-02-29T17:22:40.352Z,10.00
2024-02-29T17:25:09.982Z,10.93
2024-02-29T17:27:38.092Z,10.00
2024-02-29T17:30:07.170Z,10.27
2024-02-29T17:32:35.238Z,10.83
2024-02-29T17:35:03.353Z,11.05
2024-02-29T17:37:32.902Z,11.27
2024-02-29T17:40:01.218Z,11.70
2024-02-29T17:42:29.548Z,11.38
2024-02-29T17:44:57.654Z,12.02
2024-02-29T17:47:25.661Z,12.65
2024-02-29T17:49:53.706Z,12.45
2024-02-29T17:52:21.781Z,13.70
2024-02-29T17:54:51.772Z,12.68
2024-02-29T17:57:19.847Z,13.88
2024-02-29T17:59:47.871Z,12.43
2024-02-29T18:02:15.963Z,13.48
2024-02-29T18:04:44.132Z,13.20
2024-02-29T18:07:12.178Z,13.55
2024-02-29T18:09:42.181Z,14.50
2024-02-29T18:12:11.715Z,14.10
2024-02-29T18:14:39.734Z,15.88
2024-02-29T18:17:07.793Z,16.35
2024-02-29T18:19:35.932Z,16.85
2024-02-29T18:22:04.261Z,16.75
2024-02-29T18:24:32.394Z,17.23
2024-02-29T18:27:01.217Z,18.13
2024-02-29T18:29:30.592Z,18.20
2024-02-29T18:31:58.582Z,19.47
2024-02-29T18:34:26.797Z,18.73
2024-02-29T18:36:54.854Z,21.30
2024-02-29T18:39:22.902Z,17.65
2024-02-29T18:41:50.991Z,18.97
2024-02-29T18:44:19.011Z,19.02
2024-02-29T18:46:48.567Z,21.15
2024-02-29T18:49:17.622Z,20.27
2024-02-29T18:51:45.976Z,21.40
2024-02-29T18:54:14.435Z,18.55
2024-02-29T18:56:43.315Z,20.33
2024-02-29T18:59:13.794Z,19.65
2024-02-29T19:01:43.463Z,20.80
2024-02-29T19:04:13.225Z,20.73
2024-02-29T19:06:41.247Z,20.38
2024-02-29T19:09:09.362Z,18.65
2024-02-29T19:11:40.878Z,18.38
2024-02-29T19:14:08.957Z,19.85
2024-02-29T19:16:40.370Z,19.02
2024-02-29T19:19:08.463Z,19.60
2024-02-29T19:21:38.720Z,19.03
2024-02-29T19:24:11.510Z,19.05
2024-02-29T19:26:39.660Z,18.23
2024-02-29T19:29:07.844Z,19.17
2024-02-29T19:31:35.950Z,18.70
2024-02-29T19:34:06.090Z,17.95
2024-02-29T19:36:34.183Z,18.57
2024-02-29T19:39:04.026Z,19.77
2024-02-29T19:41:32.081Z,19.77
2024-02-29T19:44:00.186Z,18.25
2024-02-29T19:46:28.492Z,19.45
2024-02-29T19:48:57.808Z,18.92
2024-02-29T19:51:25.914Z,17.70
2024-02-29T19:53:53.962Z,18.30
2024-02-29T19:56:23.389Z,18.38
2024-02-29T19:58:51.465Z,17.40
2024-02-29T20:01:19.520Z,18.80
2024-02-29T20:03:47.588Z,17.70
2024-02-29T20:06:15.845Z,17.90
2024-02-29T20:08:44.611Z,18.40
2024-02-29T20:11:12.636Z,18.00
2024-02-29T20:13:42.110Z,18.50
2024-02-29T20:16:10.176Z,18.60
2024-02-29T20:18:38.337Z,22.33
2024-02-29T20:21:07.093Z,19.77
2024-02-29T20:23:35.693Z,19.70
2024-02-29T20:26:03.872Z,19.83
2024-02-29T20:28:32.100Z,19.98
2024-02-29T20:31:02.451Z,19.23
2024-02-29T20:33:30.532Z,18.90
2024-02-29T20:35:58.596Z,18.20
2024-02-29T20:38:26.567Z,18.08
2024-02-29T20:40:54.588Z,16.53
2024-02-29T20:43:22.717Z,16.98
2024-02-29T20:45:51.992Z,16.00
2024-02-29T20:48:21.466Z,16.73
2024-02-29T20:50:49.656Z,16.20
2024-02-29T20:53:17.665Z,16.83
2024-02-29T20:55:45.826Z,16.95
2024-02-29T20:58:14.173Z,15.85
2024-02-29T21:00:43.315Z,16.50
2024-02-29T21:03:11.377Z,16.02
2024-02-29T21:05:40.904Z,16.93
2024-02-29T21:08:09.516Z,16.37
2024-02-29T21:10:37.977Z,15.97
2024-02-29T21:13:06.154Z,15.95
2024-02-29T21:15:34.227Z,15.93
2024-02-29T21:18:02.309Z,14.97
2024-02-29T21:20:30.709Z,15.65
2024-02-29T21:23:00.096Z,15.70
2024-02-29T21:25:28.255Z,14.25
2024-02-29T21:27:56.360Z,14.95
2024-02-29T21:30:24.708Z,15.05
2024-02-29T21:32:53.253Z,15.13
2024-02-29T21:35:23.155Z,15.48
2024-02-29T21:37:51.179Z,15.65
2024-02-29T21:40:20.652Z,15.20
2024-02-29T21:42:50.240Z,15.00
2024-02-29T21:45:18.570Z,15.95
2024-02-29T21:47:46.611Z,15.15
2024-02-29T21:50:14.722Z,15.90
2024-02-29T21:52:42.762Z,15.85
2024-02-29T21:55:11.996Z,15.95
2024-02-29T21:57:41.410Z,15.90
2024-02-29T22:00:10.572Z,15.82
2024-02-29T22:02:42.626Z,15.40
2024-02-29T22:05:13.501Z,14.57
2024-02-29T22:07:42.608Z,14.70
2024-02-29T22:10:13.450Z,14.98
2024-02-29T22:12:43.051Z,15.48
2024-02-29T22:15:11.729Z,13.82
2024-02-29T22:17:39.853Z,14.18
2024-02-29T22:20:11.165Z,13.70
2024-02-29T22:22:39.336Z,14.18
2024-02-29T22:25:08.674Z,13.90
2024-02-29T22:27:36.759Z,13.82
2024-02-29T22:30:07.872Z,14.32
2024-02-29T22:32:36.177Z,13.18
2024-02-29T22:35:07.751Z,13.02
2024-02-29T22:37:36.432Z,12.35
2024-02-29T22:40:08.670Z,13.30
2024-02-29T22:42:36.864Z,12.30
2024-02-29T22:45:07.834Z,12.77
2024-02-29T22:47:35.907Z,11.57
2024-02-29T22:50:02.997Z,11.98
2024-02-29T22:52:31.175Z,12.27
2024-02-29T22:54:59.432Z,11.98
2024-02-29T22:57:27.478Z,11.90
2024-02-29T22:59:55.584Z,11.90
2024-02-29T23:02:25.009Z,11.75
2024-02-29T23:04:52.992Z,13.40
2024-02-29T23:07:21.081Z,11.82
2024-02-29T23:09:49.473Z,12.37
2024-02-29T23:12:17.647Z,11.50
2024-02-29T23:14:46.579Z,11.20
2024-02-29T23:17:14.614Z,11.93
2024-02-29T23:19:43.933Z,11.20
2024-02-29T23:22:12.691Z,10.83
2024-02-29T23:24:40.740Z,11.05
2024-02-29T23:27:08.736Z,10.82
2024-02-29T23:29:36.976Z,10.88
2024-02-29T23:32:05.468Z,11.60
2024-02-29T23:34:33.449Z,10.90
2024-02-29T23:37:04.829Z,11.68
2024-02-29T23:39:32.800Z,10.80
2024-02-29T23:42:00.773Z,10.77
2024-02-29T23:44:28.756Z,11.05
2024-02-29T23:46:56.751Z,12.85
2024-02-29T23:49:25.097Z,11.25
2024-02-29T23:51:53.556Z,11.05
2024-02-29T23:54:22.907Z,10.75
2024-02-29T23:56:51.410Z,10.83
2024-02-29T23:59:20.268Z,11.13
